sensor_id;sensor_type;location;lat;lon;timestamp;pressure;altitude;pressure_sealevel;temperature;humidity
56894;BME280;43392;50.078;13.704;2023-06-22T00:01:56;97333.38;;;23.36;69.78
56894;BME280;43392;50.078;13.704;2023-06-22T00:04:22;97331.66;;;23.32;70.13
56894;BME280;43392;50.078;13.704;2023-06-22T00:06:49;97331.81;;;23.23;69.64
56894;BME280;43392;50.078;13.704;2023-06-22T00:09:15;97335.50;;;23.15;70.11
56894;BME280;43392;50.078;13.704;2023-06-22T00:11:42;97331.50;;;23.13;70.00
56894;BME280;43392;50.078;13.704;2023-06-22T00:14:09;97335.81;;;23.13;70.28
56894;BME280;43392;50.078;13.704;2023-06-22T00:16:35;97331.28;;;23.18;70.01
56894;BME280;43392;50.078;13.704;2023-06-22T00:19:03;97327.50;;;23.22;69.17
56894;BME280;43392;50.078;13.704;2023-06-22T00:21:31;97319.59;;;23.21;69.92
56894;BME280;43392;50.078;13.704;2023-06-22T00:23:57;97316.69;;;23.13;70.27
56894;BME280;43392;50.078;13.704;2023-06-22T00:26:24;97312.50;;;23.04;70.49
56894;BME280;43392;50.078;13.704;2023-06-22T00:28:51;97317.88;;;23.00;70.16
56894;BME280;43392;50.078;13.704;2023-06-22T00:31:17;97312.97;;;22.94;70.22
56894;BME280;43392;50.078;13.704;2023-06-22T00:33:44;97314.47;;;22.91;70.69
56894;BME280;43392;50.078;13.704;2023-06-22T00:36:12;97312.97;;;22.94;70.30
56894;BME280;43392;50.078;13.704;2023-06-22T00:38:41;97301.72;;;22.95;70.88
56894;BME280;43392;50.078;13.704;2023-06-22T00:41:08;97307.84;;;22.92;70.56
56894;BME280;43392;50.078;13.704;2023-06-22T00:43:34;97306.16;;;22.88;70.65
56894;BME280;43392;50.078;13.704;2023-06-22T00:46:01;97314.72;;;22.86;70.98
56894;BME280;43392;50.078;13.704;2023-06-22T00:48:28;97303.06;;;22.89;70.42
56894;BME280;43392;50.078;13.704;2023-06-22T00:50:55;97314.13;;;22.93;70.42
56894;BME280;43392;50.078;13.704;2023-06-22T00:53:23;97312.72;;;22.99;69.69
56894;BME280;43392;50.078;13.704;2023-06-22T00:55:49;97307.25;;;22.99;69.33
56894;BME280;43392;50.078;13.704;2023-06-22T00:58:18;97307.25;;;22.99;69.23
56894;BME280;43392;50.078;13.704;2023-06-22T01:00:47;97302.59;;;22.99;69.43
56894;BME280;43392;50.078;13.704;2023-06-22T01:03:14;97304.78;;;22.94;69.94
56894;BME280;43392;50.078;13.704;2023-06-22T01:05:42;97308.66;;;22.93;69.72
56894;BME280;43392;50.078;13.704;2023-06-22T01:08:26;97302.38;;;22.92;69.27
56894;BME280;43392;50.078;13.704;2023-06-22T01:11:00;97301.50;;;22.88;69.02
56894;BME280;43392;50.078;13.704;2023-06-22T01:13:35;97305.47;;;22.91;69.10
56894;BME280;43392;50.078;13.704;2023-06-22T01:16:08;97304.78;;;22.94;69.40
56894;BME280;43392;50.078;13.704;2023-06-22T01:18:36;97300.91;;;22.95;69.54
56894;BME280;43392;50.078;13.704;2023-06-22T01:21:07;97297.38;;;22.94;69.28
56894;BME280;43392;50.078;13.704;2023-06-22T01:23:51;97307.84;;;22.92;69.14
56894;BME280;43392;50.078;13.704;2023-06-22T01:26:25;97309.72;;;22.88;69.21
56894;BME280;43392;50.078;13.704;2023-06-22T01:28:57;97320.19;;;22.86;69.42
56894;BME280;43392;50.078;13.704;2023-06-22T01:31:25;97318.94;;;22.84;69.22
56894;BME280;43392;50.078;13.704;2023-06-22T01:33:57;97323.06;;;22.78;69.37
56894;BME280;43392;50.078;13.704;2023-06-22T01:36:25;97312.56;;;22.80;69.10
56894;BME280;43392;50.078;13.704;2023-06-22T01:38:53;97314.63;;;22.83;68.23
56894;BME280;43392;50.078;13.704;2023-06-22T01:41:20;97310.28;;;22.82;68.56
56894;BME280;43392;50.078;13.704;2023-06-22T01:43:48;97312.13;;;22.78;69.11
56894;BME280;43392;50.078;13.704;2023-06-22T01:46:18;97312.34;;;22.73;69.43
56894;BME280;43392;50.078;13.704;2023-06-22T01:48:46;97301.31;;;22.69;68.64
56894;BME280;43392;50.078;13.704;2023-06-22T01:51:12;97315.00;;;22.69;69.05
56894;BME280;43392;50.078;13.704;2023-06-22T01:53:39;97313.16;;;22.73;68.96
56894;BME280;43392;50.078;13.704;2023-06-22T01:56:06;97313.97;;;22.74;69.00
56894;BME280;43392;50.078;13.704;2023-06-22T01:58:33;97312.13;;;22.78;68.63
56894;BME280;43392;50.078;13.704;2023-06-22T02:01:06;97312.22;;;22.81;68.13
56894;BME280;43392;50.078;13.704;2023-06-22T02:03:40;97315.84;;;22.85;68.23
56894;BME280;43392;50.078;13.704;2023-06-22T02:06:11;97314.72;;;22.86;67.87
56894;BME280;43392;50.078;13.704;2023-06-22T02:08:46;97304.56;;;22.87;68.02
56894;BME280;43392;50.078;13.704;2023-06-22T02:11:15;97305.03;;;22.89;68.47
56894;BME280;43392;50.078;13.704;2023-06-22T02:13:43;97313.25;;;22.89;68.13
56894;BME280;43392;50.078;13.704;2023-06-22T02:16:11;97298.06;;;22.91;67.55
56894;BME280;43392;50.078;13.704;2023-06-22T02:18:46;97306.97;;;22.88;67.86
56894;BME280;43392;50.078;13.704;2023-06-22T02:21:12;97299.22;;;22.90;67.47
56894;BME280;43392;50.078;13.704;2023-06-22T02:23:39;97299.91;;;22.87;67.63
56894;BME280;43392;50.078;13.704;2023-06-22T02:26:06;97299.91;;;22.87;67.26
56894;BME280;43392;50.078;13.704;2023-06-22T02:28:32;97301.38;;;22.85;67.61
56894;BME280;43392;50.078;13.704;2023-06-22T02:30:59;97298.88;;;22.80;67.67
56894;BME280;43392;50.078;13.704;2023-06-22T02:33:25;97300.72;;;22.76;67.49
56894;BME280;43392;50.078;13.704;2023-06-22T02:35:54;97304.28;;;22.76;67.58
56894;BME280;43392;50.078;13.704;2023-06-22T02:38:21;97303.56;;;22.79;67.95
56894;BME280;43392;50.078;13.704;2023-06-22T02:40:49;97308.56;;;22.77;67.89
56894;BME280;43392;50.078;13.704;2023-06-22T02:43:16;97310.19;;;22.78;67.61
56894;BME280;43392;50.078;13.704;2023-06-22T02:45:42;97304.34;;;22.80;67.47
56894;BME280;43392;50.078;13.704;2023-06-22T02:48:10;97307.53;;;22.82;67.20
56894;BME280;43392;50.078;13.704;2023-06-22T02:50:36;97302.88;;;22.82;66.79
56894;BME280;43392;50.078;13.704;2023-06-22T02:53:04;97303.66;;;22.83;66.79
56894;BME280;43392;50.078;13.704;2023-06-22T02:55:31;97308.34;;;22.82;66.49
56894;BME280;43392;50.078;13.704;2023-06-22T02:57:57;97309.50;;;22.81;66.17
56894;BME280;43392;50.078;13.704;2023-06-22T03:00:25;97308.50;;;22.74;65.88
56894;BME280;43392;50.078;13.704;2023-06-22T03:02:56;97313.03;;;22.70;65.99
56894;BME280;43392;50.078;13.704;2023-06-22T03:05:23;97310.31;;;22.70;66.34
56894;BME280;43392;50.078;13.704;2023-06-22T03:07:50;97312.94;;;22.66;66.06
56894;BME280;43392;50.078;13.704;2023-06-22T03:10:18;97311.00;;;22.67;66.28
56894;BME280;43392;50.078;13.704;2023-06-22T03:12:44;97311.47;;;22.69;65.99
56894;BME280;43392;50.078;13.704;2023-06-22T03:15:12;97311.91;;;22.71;66.12
56894;BME280;43392;50.078;13.704;2023-06-22T03:17:39;97310.22;;;22.66;66.06
56894;BME280;43392;50.078;13.704;2023-06-22T03:20:08;97294.16;;;22.65;65.65
56894;BME280;43392;50.078;13.704;2023-06-22T03:22:36;97311.09;;;22.70;66.04
56894;BME280;43392;50.078;13.704;2023-06-22T03:25:03;97309.16;;;22.71;66.14
56894;BME280;43392;50.078;13.704;2023-06-22T03:27:36;97311.34;;;22.65;66.46
56894;BME280;43392;50.078;13.704;2023-06-22T03:30:03;97315.06;;;22.61;66.09
56894;BME280;43392;50.078;13.704;2023-06-22T03:32:30;97311.25;;;22.62;65.92
56894;BME280;43392;50.078;13.704;2023-06-22T03:34:56;97297.56;;;22.62;66.39
56894;BME280;43392;50.078;13.704;2023-06-22T03:37:24;97297.78;;;22.69;66.20
56894;BME280;43392;50.078;13.704;2023-06-22T03:39:51;97298.22;;;22.71;66.19
56894;BME280;43392;50.078;13.704;2023-06-22T03:42:17;97297.88;;;22.72;66.12
56894;BME280;43392;50.078;13.704;2023-06-22T03:44:45;97283.44;;;22.72;66.00
56894;BME280;43392;50.078;13.704;2023-06-22T03:47:12;97288.91;;;22.72;66.26
56894;BME280;43392;50.078;13.704;2023-06-22T03:49:39;97275.22;;;22.72;66.13
56894;BME280;43392;50.078;13.704;2023-06-22T03:52:06;97272.81;;;22.70;65.91
56894;BME280;43392;50.078;13.704;2023-06-22T03:54:33;97268.03;;;22.67;66.44
56894;BME280;43392;50.078;13.704;2023-06-22T03:56:59;97274.31;;;22.68;66.42
56894;BME280;43392;50.078;13.704;2023-06-22T03:59:26;97284.81;;;22.66;66.65
56894;BME280;43392;50.078;13.704;2023-06-22T04:01:54;97283.44;;;22.60;66.82
56894;BME280;43392;50.078;13.704;2023-06-22T04:04:21;97277.63;;;22.61;66.45
56894;BME280;43392;50.078;13.704;2023-06-22T04:06:47;97274.22;;;22.64;66.66
56894;BME280;43392;50.078;13.704;2023-06-22T04:09:14;97277.41;;;22.66;66.87
56894;BME280;43392;50.078;13.704;2023-06-22T04:11:40;97275.91;;;22.69;66.37
56894;BME280;43392;50.078;13.704;2023-06-22T04:14:07;97288.44;;;22.70;66.23
56894;BME280;43392;50.078;13.704;2023-06-22T04:16:33;97288.09;;;22.71;66.28
56894;BME280;43392;50.078;13.704;2023-06-22T04:19:01;97304.16;;;22.73;66.23
56894;BME280;43392;50.078;13.704;2023-06-22T04:21:28;97303.81;;;22.74;65.95
56894;BME280;43392;50.078;13.704;2023-06-22T04:23:55;97309.16;;;22.71;66.02
56894;BME280;43392;50.078;13.704;2023-06-22T04:26:21;97310.09;;;22.63;66.50
56894;BME280;43392;50.078;13.704;2023-06-22T04:28:48;97309.16;;;22.59;66.47
56894;BME280;43392;50.078;13.704;2023-06-22T04:31:16;97318.41;;;22.54;66.62
56894;BME280;43392;50.078;13.704;2023-06-22T04:33:43;97323.50;;;22.56;66.54
56894;BME280;43392;50.078;13.704;2023-06-22T04:36:11;97320.31;;;22.54;66.87
56894;BME280;43392;50.078;13.704;2023-06-22T04:38:38;97322.16;;;22.50;67.21
56894;BME280;43392;50.078;13.704;2023-06-22T04:41:05;97307.13;;;22.43;67.32
56894;BME280;43392;50.078;13.704;2023-06-22T04:43:33;97318.72;;;22.53;67.32
56894;BME280;43392;50.078;13.704;2023-06-22T04:46:00;97319.88;;;22.52;67.33
56894;BME280;43392;50.078;13.704;2023-06-22T04:48:28;97319.66;;;22.57;67.30
56894;BME280;43392;50.078;13.704;2023-06-22T04:50:58;97324.75;;;22.58;67.69
56894;BME280;43392;50.078;13.704;2023-06-22T04:53:31;97328.16;;;22.55;67.56
56894;BME280;43392;50.078;13.704;2023-06-22T04:55:58;97328.91;;;22.40;68.83
56894;BME280;43392;50.078;13.704;2023-06-22T04:58:24;97338.13;;;22.23;70.04
56894;BME280;43392;50.078;13.704;2023-06-22T05:00:54;97329.44;;;22.21;70.39
56894;BME280;43392;50.078;13.704;2023-06-22T05:03:22;97338.66;;;22.29;69.16
56894;BME280;43392;50.078;13.704;2023-06-22T05:05:51;97347.91;;;22.36;69.93
56894;BME280;43392;50.078;13.704;2023-06-22T05:08:18;97367.38;;;22.47;68.80
56894;BME280;43392;50.078;13.704;2023-06-22T05:10:45;97381.13;;;22.51;69.85
56894;BME280;43392;50.078;13.704;2023-06-22T05:13:12;97382.38;;;22.53;69.82
56894;BME280;43392;50.078;13.704;2023-06-22T05:15:39;97378.84;;;22.53;70.13
56894;BME280;43392;50.078;13.704;2023-06-22T05:18:05;97372.94;;;22.51;70.80
56894;BME280;43392;50.078;13.704;2023-06-22T05:20:32;97380.09;;;22.43;70.98
56894;BME280;43392;50.078;13.704;2023-06-22T05:23:01;97374.78;;;22.34;71.03
56894;BME280;43392;50.078;13.704;2023-06-22T05:25:27;97369.06;;;22.27;71.08
56894;BME280;43392;50.078;13.704;2023-06-22T05:27:56;97378.19;;;22.31;71.33
56894;BME280;43392;50.078;13.704;2023-06-22T05:30:23;97367.47;;;22.38;70.57
56894;BME280;43392;50.078;13.704;2023-06-22T05:32:49;97367.69;;;22.45;69.99
56894;BME280;43392;50.078;13.704;2023-06-22T05:35:18;97364.19;;;22.45;70.93
56894;BME280;43392;50.078;13.704;2023-06-22T05:37:44;97362.94;;;22.42;71.26
56894;BME280;43392;50.078;13.704;2023-06-22T05:40:12;97363.03;;;22.34;71.29
56894;BME280;43392;50.078;13.704;2023-06-22T05:42:39;97371.69;;;22.36;71.25
56894;BME280;43392;50.078;13.704;2023-06-22T05:45:07;97372.25;;;22.29;71.16
56894;BME280;43392;50.078;13.704;2023-06-22T05:47:34;97366.78;;;22.41;70.94
56894;BME280;43392;50.078;13.704;2023-06-22T05:50:01;97374.09;;;22.50;70.75
56894;BME280;43392;50.078;13.704;2023-06-22T05:52:31;97370.19;;;22.51;70.36
56894;BME280;43392;50.078;13.704;2023-06-22T05:54:58;97355.28;;;22.48;71.02
56894;BME280;43392;50.078;13.704;2023-06-22T05:57:24;97369.97;;;22.56;71.58
56894;BME280;43392;50.078;13.704;2023-06-22T05:59:51;97367.69;;;22.58;71.22
56894;BME280;43392;50.078;13.704;2023-06-22T06:02:20;97366.13;;;22.57;71.73
56894;BME280;43392;50.078;13.704;2023-06-22T06:04:47;97365.31;;;22.56;71.60
56894;BME280;43392;50.078;13.704;2023-06-22T06:07:13;97354.25;;;22.53;71.90
56894;BME280;43392;50.078;13.704;2023-06-22T06:09:40;97336.06;;;22.44;72.17
56894;BME280;43392;50.078;13.704;2023-06-22T06:12:07;97357.00;;;22.53;72.46
56894;BME280;43392;50.078;13.704;2023-06-22T06:14:34;97351.88;;;22.51;72.95
56894;BME280;43392;50.078;13.704;2023-06-22T06:17:00;97351.88;;;22.51;72.74
56894;BME280;43392;50.078;13.704;2023-06-22T06:19:28;97351.88;;;22.51;73.13
56894;BME280;43392;50.078;13.704;2023-06-22T06:21:55;97353.56;;;22.56;72.86
56894;BME280;43392;50.078;13.704;2023-06-22T06:24:22;97356.75;;;22.58;73.20
56894;BME280;43392;50.078;13.704;2023-06-22T06:26:48;97347.44;;;22.59;73.64
56894;BME280;43392;50.078;13.704;2023-06-22T06:29:15;97347.44;;;22.59;73.48
56894;BME280;43392;50.078;13.704;2023-06-22T06:31:42;97340.03;;;22.59;72.52
56894;BME280;43392;50.078;13.704;2023-06-22T06:34:09;97338.44;;;22.58;71.68
56894;BME280;43392;50.078;13.704;2023-06-22T06:36:37;97328.66;;;22.57;71.93
56894;BME280;43392;50.078;13.704;2023-06-22T06:39:03;97332.63;;;22.60;72.89
56894;BME280;43392;50.078;13.704;2023-06-22T06:41:30;97329.22;;;22.63;73.26
56894;BME280;43392;50.078;13.704;2023-06-22T06:43:57;97338.34;;;22.67;73.61
56894;BME280;43392;50.078;13.704;2023-06-22T06:46:23;97327.88;;;22.69;74.17
56894;BME280;43392;50.078;13.704;2023-06-22T06:48:50;97318.97;;;22.72;74.16
56894;BME280;43392;50.078;13.704;2023-06-22T06:51:17;97306.56;;;22.74;74.43
56894;BME280;43392;50.078;13.704;2023-06-22T06:53:45;97308.94;;;22.76;74.82
56894;BME280;43392;50.078;13.704;2023-06-22T06:56:11;97305.75;;;22.74;75.49
56894;BME280;43392;50.078;13.704;2023-06-22T06:58:40;97299.34;;;22.82;75.04
56894;BME280;43392;50.078;13.704;2023-06-22T07:01:07;97292.63;;;22.79;73.66
56894;BME280;43392;50.078;13.704;2023-06-22T07:03:34;97289.44;;;22.77;74.06
56894;BME280;43392;50.078;13.704;2023-06-22T07:06:01;97297.53;;;22.86;74.03
56894;BME280;43392;50.078;13.704;2023-06-22T07:08:27;97292.13;;;22.89;73.15
56894;BME280;43392;50.078;13.704;2023-06-22T07:10:55;97293.38;;;22.92;73.05
56894;BME280;43392;50.078;13.704;2023-06-22T07:13:22;97294.38;;;22.99;74.30
56894;BME280;43392;50.078;13.704;2023-06-22T07:15:49;97291.78;;;23.03;73.10
56894;BME280;43392;50.078;13.704;2023-06-22T07:18:15;97279.34;;;23.05;72.86
56894;BME280;43392;50.078;13.704;2023-06-22T07:20:42;97273.16;;;23.08;72.71
56894;BME280;43392;50.078;13.704;2023-06-22T07:23:08;97273.25;;;23.12;72.74
56894;BME280;43392;50.078;13.704;2023-06-22T07:25:35;97273.34;;;23.16;72.75
56894;BME280;43392;50.078;13.704;2023-06-22T07:28:04;97267.19;;;23.19;72.59
56894;BME280;43392;50.078;13.704;2023-06-22T07:30:32;97264.56;;;23.22;72.76
56894;BME280;43392;50.078;13.704;2023-06-22T07:33:00;97270.91;;;23.26;72.63
56894;BME280;43392;50.078;13.704;2023-06-22T07:35:29;97262.81;;;23.30;72.48
56894;BME280;43392;50.078;13.704;2023-06-22T07:37:56;97258.47;;;23.29;72.71
56894;BME280;43392;50.078;13.704;2023-06-22T07:40:22;97261.09;;;23.37;71.99
56894;BME280;43392;50.078;13.704;2023-06-22T07:42:49;97261.53;;;23.39;72.21
56894;BME280;43392;50.078;13.704;2023-06-22T07:45:18;97253.31;;;23.39;71.62
56894;BME280;43392;50.078;13.704;2023-06-22T07:47:45;97253.31;;;23.39;72.52
56894;BME280;43392;50.078;13.704;2023-06-22T07:50:11;97258.78;;;23.39;71.63
56894;BME280;43392;50.078;13.704;2023-06-22T07:52:38;97248.66;;;23.40;72.15
56894;BME280;43392;50.078;13.704;2023-06-22T07:55:05;97252.59;;;23.42;72.16
56894;BME280;43392;50.078;13.704;2023-06-22T07:57:31;97245.56;;;23.41;72.51
56894;BME280;43392;50.078;13.704;2023-06-22T07:59:59;97255.44;;;23.46;71.84
56894;BME280;43392;50.078;13.704;2023-06-22T08:02:27;97243.38;;;23.47;72.47
56894;BME280;43392;50.078;13.704;2023-06-22T08:04:54;97237.53;;;23.48;71.76
56894;BME280;43392;50.078;13.704;2023-06-22T08:07:20;97231.34;;;23.51;72.03
56894;BME280;43392;50.078;13.704;2023-06-22T08:09:48;97233.66;;;23.49;71.44
56894;BME280;43392;50.078;13.704;2023-06-22T08:12:15;97234.97;;;23.55;71.32
56894;BME280;43392;50.078;13.704;2023-06-22T08:14:42;97231.09;;;23.56;71.17
56894;BME280;43392;50.078;13.704;2023-06-22T08:17:09;97237.81;;;23.59;71.50
56894;BME280;43392;50.078;13.704;2023-06-22T08:19:38;97236.31;;;23.61;71.27
56894;BME280;43392;50.078;13.704;2023-06-22T08:22:05;97243.03;;;23.64;70.74
56894;BME280;43392;50.078;13.704;2023-06-22T08:24:32;97248.94;;;23.66;70.19
56894;BME280;43392;50.078;13.704;2023-06-22T08:26:59;97252.13;;;23.68;70.02
56894;BME280;43392;50.078;13.704;2023-06-22T08:29:25;97247.88;;;23.70;69.90
56894;BME280;43392;50.078;13.704;2023-06-22T08:31:52;97237.34;;;23.72;69.40
56894;BME280;43392;50.078;13.704;2023-06-22T10:35:45;97161.13;;;26.45;63.88
56894;BME280;43392;50.078;13.704;2023-06-22T10:38:11;97169.88;;;26.54;63.27
56894;BME280;43392;50.078;13.704;2023-06-22T10:40:38;97164.88;;;26.63;62.63
56894;BME280;43392;50.078;13.704;2023-06-22T10:43:05;97155.97;;;26.73;61.98
56894;BME280;43392;50.078;13.704;2023-06-22T10:45:34;97156.09;;;26.80;61.46
56894;BME280;43392;50.078;13.704;2023-06-22T10:48:07;97155.81;;;26.92;60.02
56894;BME280;43392;50.078;13.704;2023-06-22T10:50:36;97151.19;;;26.99;58.66
56894;BME280;43392;50.078;13.704;2023-06-22T10:53:20;97148.56;;;27.10;58.58
56894;BME280;43392;50.078;13.704;2023-06-22T10:55:46;97147.84;;;27.17;57.98
56894;BME280;43392;50.078;13.704;2023-06-22T10:58:13;97149.38;;;27.14;57.66
56894;BME280;43392;50.078;13.704;2023-06-22T11:00:40;97143.94;;;27.21;57.23
56894;BME280;43392;50.078;13.704;2023-06-22T11:03:06;97141.31;;;27.32;56.71
56894;BME280;43392;50.078;13.704;2023-06-22T11:05:33;97135.50;;;27.40;56.99
56894;BME280;43392;50.078;13.704;2023-06-22T11:07:59;97134.00;;;27.46;55.42
56894;BME280;43392;50.078;13.704;2023-06-22T11:10:27;97126.94;;;27.52;55.23
56894;BME280;43392;50.078;13.704;2023-06-22T11:12:54;97126.19;;;27.55;55.05
56894;BME280;43392;50.078;13.704;2023-06-22T11:15:23;97130.50;;;27.56;54.85
56894;BME280;43392;50.078;13.704;2023-06-22T11:17:49;97123.06;;;27.60;55.52
56894;BME280;43392;50.078;13.704;2023-06-22T11:20:16;97110.56;;;27.74;56.19
56894;BME280;43392;50.078;13.704;2023-06-22T11:22:43;97109.47;;;27.85;55.41
56894;BME280;43392;50.078;13.704;2023-06-22T11:25:10;97113.03;;;27.89;54.60
56894;BME280;43392;50.078;13.704;2023-06-22T11:27:39;97120.16;;;27.90;53.95
56894;BME280;43392;50.078;13.704;2023-06-22T11:30:07;97111.09;;;27.90;53.91
56894;BME280;43392;50.078;13.704;2023-06-22T11:32:34;97123.31;;;27.92;53.30
56894;BME280;43392;50.078;13.704;2023-06-22T11:35:01;97114.25;;;27.95;53.69
56894;BME280;43392;50.078;13.704;2023-06-22T11:37:27;97116.72;;;28.07;54.01
56894;BME280;43392;50.078;13.704;2023-06-22T11:39:54;97118.38;;;28.22;53.46
56894;BME280;43392;50.078;13.704;2023-06-22T11:42:21;97120.78;;;28.24;53.25
56894;BME280;43392;50.078;13.704;2023-06-22T11:44:50;97110.94;;;28.26;52.27
56894;BME280;43392;50.078;13.704;2023-06-22T11:47:16;97113.69;;;28.30;53.40
56894;BME280;43392;50.078;13.704;2023-06-22T11:49:43;97105.44;;;28.37;53.12
56894;BME280;43392;50.078;13.704;2023-06-22T11:52:10;97094.84;;;28.43;52.79
56894;BME280;43392;50.078;13.704;2023-06-22T11:54:36;97098.41;;;28.47;51.99
56894;BME280;43392;50.078;13.704;2023-06-22T11:57:04;97095.69;;;28.57;51.85
56894;BME280;43392;50.078;13.704;2023-06-22T11:59:33;97092.97;;;28.64;51.32
56894;BME280;43392;50.078;13.704;2023-06-22T12:02:04;97086.69;;;28.67;51.64
56894;BME280;43392;50.078;13.704;2023-06-22T12:04:32;97076.47;;;28.75;51.46
56894;BME280;43392;50.078;13.704;2023-06-22T12:06:59;97070.16;;;28.81;51.33
56894;BME280;43392;50.078;13.704;2023-06-22T12:09:26;97065.41;;;28.85;51.72
56894;BME280;43392;50.078;13.704;2023-06-22T12:11:53;97071.75;;;28.89;50.98
56894;BME280;43392;50.078;13.704;2023-06-22T12:14:19;97061.47;;;28.90;50.61
56894;BME280;43392;50.078;13.704;2023-06-22T12:16:46;97060.72;;;28.89;50.37
56894;BME280;43392;50.078;13.704;2023-06-22T12:19:16;97059.91;;;28.89;50.20
56894;BME280;43392;50.078;13.704;2023-06-22T12:21:44;97052.81;;;28.88;50.49
56894;BME280;43392;50.078;13.704;2023-06-22T12:24:11;97052.03;;;28.91;50.33
56894;BME280;43392;50.078;13.704;2023-06-22T12:26:38;97048.47;;;28.90;50.11
56894;BME280;43392;50.078;13.704;2023-06-22T12:29:05;97044.94;;;28.93;50.62
56894;BME280;43392;50.078;13.704;2023-06-22T12:31:33;97039.81;;;28.96;50.16
56894;BME280;43392;50.078;13.704;2023-06-22T12:34:00;97044.16;;;28.93;50.37
56894;BME280;43392;50.078;13.704;2023-06-22T12:36:28;97040.19;;;28.87;50.08
56894;BME280;43392;50.078;13.704;2023-06-22T12:38:54;97041.38;;;28.86;50.18
56894;BME280;43392;50.078;13.704;2023-06-22T12:41:21;97033.88;;;28.83;50.04
56894;BME280;43392;50.078;13.704;2023-06-22T12:43:48;97029.16;;;28.80;50.21
56894;BME280;43392;50.078;13.704;2023-06-22T12:46:14;97018.91;;;28.84;50.29
56894;BME280;43392;50.078;13.704;2023-06-22T12:48:42;97023.63;;;28.90;50.15
56894;BME280;43392;50.078;13.704;2023-06-22T12:51:08;97013.38;;;28.91;50.07
56894;BME280;43392;50.078;13.704;2023-06-22T12:53:36;97013.78;;;28.97;49.48
56894;BME280;43392;50.078;13.704;2023-06-22T12:56:03;97019.69;;;28.99;49.27
56894;BME280;43392;50.078;13.704;2023-06-22T12:58:30;97018.50;;;29.00;49.14
56894;BME280;43392;50.078;13.704;2023-06-22T13:00:57;97020.09;;;29.01;49.29
56894;BME280;43392;50.078;13.704;2023-06-22T13:03:23;97010.22;;;29.03;48.96
56894;BME280;43392;50.078;13.704;2023-06-22T13:05:53;97010.63;;;29.05;49.03
56894;BME280;43392;50.078;13.704;2023-06-22T13:08:19;97005.88;;;29.02;48.95
56894;BME280;43392;50.078;13.704;2023-06-22T13:10:47;97009.03;;;29.01;48.74
56894;BME280;43392;50.078;13.704;2023-06-22T13:13:14;97011.81;;;29.01;48.78
56894;BME280;43392;50.078;13.704;2023-06-22T13:15:40;97005.88;;;29.02;48.46
56894;BME280;43392;50.078;13.704;2023-06-22T13:18:07;96996.44;;;29.03;48.68
56894;BME280;43392;50.078;13.704;2023-06-22T13:20:34;96994.47;;;29.04;48.89
56894;BME280;43392;50.078;13.704;2023-06-22T13:23:00;96992.50;;;29.11;49.18
56894;BME280;43392;50.078;13.704;2023-06-22T13:25:27;96993.66;;;29.17;48.88
56894;BME280;43392;50.078;13.704;2023-06-22T13:27:55;96992.13;;;29.23;49.41
56894;BME280;43392;50.078;13.704;2023-06-22T13:30:21;97000.78;;;29.29;48.90
56894;BME280;43392;50.078;13.704;2023-06-22T13:32:48;96992.88;;;29.34;49.23
56894;BME280;43392;50.078;13.704;2023-06-22T13:35:14;96986.97;;;29.43;49.34
56894;BME280;43392;50.078;13.704;2023-06-22T13:37:41;96985.78;;;29.47;49.46
56894;BME280;43392;50.078;13.704;2023-06-22T13:40:08;96977.47;;;29.51;50.33
56894;BME280;43392;50.078;13.704;2023-06-22T13:42:35;96976.25;;;29.59;49.64
56894;BME280;43392;50.078;13.704;2023-06-22T13:45:04;96976.25;;;29.66;48.68
56894;BME280;43392;50.078;13.704;2023-06-22T13:47:31;96977.41;;;29.69;48.66
56894;BME280;43392;50.078;13.704;2023-06-22T13:49:58;96967.53;;;29.68;48.38
56894;BME280;43392;50.078;13.704;2023-06-22T13:52:25;96962.81;;;29.68;48.04
56894;BME280;43392;50.078;13.704;2023-06-22T13:54:51;96958.88;;;29.69;47.76
56894;BME280;43392;50.078;13.704;2023-06-22T13:57:18;96957.66;;;29.70;47.97
56894;BME280;43392;50.078;13.704;2023-06-22T13:59:45;96959.25;;;29.71;48.20
56894;BME280;43392;50.078;13.704;2023-06-22T14:02:13;96959.66;;;29.77;48.40
56894;BME280;43392;50.078;13.704;2023-06-22T14:04:40;96956.88;;;29.80;47.87
56894;BME280;43392;50.078;13.704;2023-06-22T14:07:06;96960.44;;;29.81;47.90
56894;BME280;43392;50.078;13.704;2023-06-22T14:09:33;96956.06;;;29.83;48.20
56894;BME280;43392;50.078;13.704;2023-06-22T14:12:03;96956.44;;;29.92;49.06
56894;BME280;43392;50.078;13.704;2023-06-22T14:14:30;96958.00;;;29.97;48.19
56894;BME280;43392;50.078;13.704;2023-06-22T14:16:58;96952.50;;;29.93;47.41
56894;BME280;43392;50.078;13.704;2023-06-22T14:19:26;96946.97;;;29.90;47.95
56894;BME280;43392;50.078;13.704;2023-06-22T14:21:52;96955.63;;;29.95;48.13
56894;BME280;43392;50.078;13.704;2023-06-22T14:24:19;96946.50;;;30.02;48.31
56894;BME280;43392;50.078;13.704;2023-06-22T14:26:45;96940.56;;;30.07;48.08
56894;BME280;43392;50.078;13.704;2023-06-22T14:29:12;96938.19;;;30.09;47.28
56894;BME280;43392;50.078;13.704;2023-06-22T14:31:38;96936.63;;;30.08;47.17
56894;BME280;43392;50.078;13.704;2023-06-22T14:34:05;96936.59;;;30.11;47.24
56894;BME280;43392;50.078;13.704;2023-06-22T14:36:33;96935.03;;;30.10;47.61
56894;BME280;43392;50.078;13.704;2023-06-22T14:39:00;96932.22;;;30.14;47.84
56894;BME280;43392;50.078;13.704;2023-06-22T14:41:26;96928.66;;;30.17;48.20
56894;BME280;43392;50.078;13.704;2023-06-22T14:43:53;96911.66;;;30.18;48.11
56894;BME280;43392;50.078;13.704;2023-06-22T14:46:20;96916.44;;;30.14;47.75
56894;BME280;43392;50.078;13.704;2023-06-22T14:48:46;96914.88;;;30.10;47.99
56894;BME280;43392;50.078;13.704;2023-06-22T14:51:13;96912.13;;;30.06;47.94
56894;BME280;43392;50.078;13.704;2023-06-22T14:53:42;96906.59;;;30.06;47.85